sensor_id;sensor_type;location;lat;lon;timestamp;P1;durP1;ratioP1;P2;durP2;ratioP2
37164;SDS011;23057;48.554;14.454;2023-07-29T00:01:52;5.72;;;3.50;;
37164;SDS011;23057;48.554;14.454;2023-07-29T00:04:24;5.85;;;4.10;;
37164;SDS011;23057;48.554;14.454;2023-07-29T00:06:55;8.65;;;5.13;;
37164;SDS011;23057;48.554;14.454;2023-07-29T00:09:26;4.90;;;3.63;;
37164;SDS011;23057;48.554;14.454;2023-07-29T00:11:56;5.93;;;3.58;;
37164;SDS011;23057;48.554;14.454;2023-07-29T00:14:27;5.47;;;3.33;;
37164;SDS011;23057;48.554;14.454;2023-07-29T00:16:58;5.15;;;3.10;;
37164;SDS011;23057;48.554;14.454;2023-07-29T00:19:29;4.72;;;2.92;;
37164;SDS011;23057;48.554;14.454;2023-07-29T00:21:59;4.75;;;2.85;;
37164;SDS011;23057;48.554;14.454;2023-07-29T00:24:30;5.25;;;3.22;;
37164;SDS011;23057;48.554;14.454;2023-07-29T00:27:01;4.10;;;2.70;;
37164;SDS011;23057;48.554;14.454;2023-07-29T00:29:32;5.40;;;3.05;;
37164;SDS011;23057;48.554;14.454;2023-07-29T00:32:03;4.80;;;2.83;;
37164;SDS011;23057;48.554;14.454;2023-07-29T00:34:34;2.90;;;2.00;;
37164;SDS011;23057;48.554;14.454;2023-07-29T00:37:05;4.57;;;3.20;;
37164;SDS011;23057;48.554;14.454;2023-07-29T00:39:36;4.57;;;2.60;;
37164;SDS011;23057;48.554;14.454;2023-07-29T00:42:08;4.03;;;2.70;;
37164;SDS011;23057;48.554;14.454;2023-07-29T00:44:39;5.32;;;2.63;;
37164;SDS011;23057;48.554;14.454;2023-07-29T00:47:10;5.60;;;3.45;;
37164;SDS011;23057;48.554;14.454;2023-07-29T00:49:45;5.25;;;3.25;;
37164;SDS011;23057;48.554;14.454;2023-07-29T00:52:16;6.10;;;3.03;;
37164;SDS011;23057;48.554;14.454;2023-07-29T00:54:47;4.18;;;2.58;;
37164;SDS011;23057;48.554;14.454;2023-07-29T00:57:18;4.03;;;2.63;;
37164;SDS011;23057;48.554;14.454;2023-07-29T00:59:51;4.03;;;2.60;;
37164;SDS011;23057;48.554;14.454;2023-07-29T01:02:22;4.53;;;2.50;;
37164;SDS011;23057;48.554;14.454;2023-07-29T01:04:53;3.63;;;2.22;;
37164;SDS011;23057;48.554;14.454;2023-07-29T01:08:17;2.83;;;1.90;;
37164;SDS011;23057;48.554;14.454;2023-07-29T01:10:46;3.58;;;2.42;;
37164;SDS011;23057;48.554;14.454;2023-07-29T01:13:44;3.80;;;2.30;;
37164;SDS011;23057;48.554;14.454;2023-07-29T01:16:30;3.85;;;2.72;;
37164;SDS011;23057;48.554;14.454;2023-07-29T01:19:17;5.70;;;2.30;;
37164;SDS011;23057;48.554;14.454;2023-07-29T01:22:27;3.47;;;2.28;;
37164;SDS011;23057;48.554;14.454;2023-07-29T01:25:01;3.47;;;2.17;;
37164;SDS011;23057;48.554;14.454;2023-07-29T01:27:33;4.05;;;2.35;;
37164;SDS011;23057;48.554;14.454;2023-07-29T01:30:04;3.42;;;2.25;;
37164;SDS011;23057;48.554;14.454;2023-07-29T01:35:46;3.65;;;2.05;;
37164;SDS011;23057;48.554;14.454;2023-07-29T01:38:33;3.33;;;1.88;;
37164;SDS011;23057;48.554;14.454;2023-07-29T01:41:08;4.32;;;2.10;;
37164;SDS011;23057;48.554;14.454;2023-07-29T01:43:40;4.13;;;2.08;;
37164;SDS011;23057;48.554;14.454;2023-07-29T01:46:14;4.75;;;2.15;;
37164;SDS011;23057;48.554;14.454;2023-07-29T01:48:45;3.30;;;1.85;;
37164;SDS011;23057;48.554;14.454;2023-07-29T01:51:16;3.00;;;1.80;;
37164;SDS011;23057;48.554;14.454;2023-07-29T01:53:47;2.92;;;1.95;;
37164;SDS011;23057;48.554;14.454;2023-07-29T01:56:17;2.50;;;1.63;;
37164;SDS011;23057;48.554;14.454;2023-07-29T01:58:48;2.33;;;1.40;;
37164;SDS011;23057;48.554;14.454;2023-07-29T02:01:19;4.30;;;1.60;;
37164;SDS011;23057;48.554;14.454;2023-07-29T02:03:50;3.45;;;1.42;;
37164;SDS011;23057;48.554;14.454;2023-07-29T02:06:25;4.68;;;1.50;;
37164;SDS011;23057;48.554;14.454;2023-07-29T02:08:57;3.65;;;1.60;;
37164;SDS011;23057;48.554;14.454;2023-07-29T02:11:28;2.65;;;1.60;;
37164;SDS011;23057;48.554;14.454;2023-07-29T02:13:59;4.25;;;2.00;;
37164;SDS011;23057;48.554;14.454;2023-07-29T02:16:29;3.58;;;1.90;;
37164;SDS011;23057;48.554;14.454;2023-07-29T02:19:02;2.38;;;1.65;;
37164;SDS011;23057;48.554;14.454;2023-07-29T02:21:33;4.43;;;1.92;;
37164;SDS011;23057;48.554;14.454;2023-07-29T02:24:04;3.92;;;1.70;;
37164;SDS011;23057;48.554;14.454;2023-07-29T02:26:35;4.68;;;2.38;;
37164;SDS011;23057;48.554;14.454;2023-07-29T02:29:05;3.47;;;1.85;;
37164;SDS011;23057;48.554;14.454;2023-07-29T02:31:36;4.45;;;1.80;;
37164;SDS011;23057;48.554;14.454;2023-07-29T02:34:08;3.40;;;1.80;;
37164;SDS011;23057;48.554;14.454;2023-07-29T02:36:39;3.72;;;1.90;;
37164;SDS011;23057;48.554;14.454;2023-07-29T02:39:09;3.40;;;1.50;;
37164;SDS011;23057;48.554;14.454;2023-07-29T02:41:40;5.15;;;1.75;;
37164;SDS011;23057;48.554;14.454;2023-07-29T02:44:11;2.75;;;1.60;;
37164;SDS011;23057;48.554;14.454;2023-07-29T02:46:42;2.90;;;1.80;;
37164;SDS011;23057;48.554;14.454;2023-07-29T02:49:12;2.13;;;1.30;;
37164;SDS011;23057;48.554;14.454;2023-07-29T02:51:43;2.97;;;1.65;;
37164;SDS011;23057;48.554;14.454;2023-07-29T02:54:14;3.58;;;1.75;;
37164;SDS011;23057;48.554;14.454;2023-07-29T02:56:45;2.90;;;1.88;;
37164;SDS011;23057;48.554;14.454;2023-07-29T02:59:16;4.93;;;1.90;;
37164;SDS011;23057;48.554;14.454;2023-07-29T03:01:47;3.28;;;1.95;;
37164;SDS011;23057;48.554;14.454;2023-07-29T03:04:17;3.15;;;1.63;;
37164;SDS011;23057;48.554;14.454;2023-07-29T03:06:48;3.28;;;1.73;;
37164;SDS011;23057;48.554;14.454;2023-07-29T03:09:19;3.08;;;1.67;;
37164;SDS011;23057;48.554;14.454;2023-07-29T03:11:50;3.05;;;1.42;;
37164;SDS011;23057;48.554;14.454;2023-07-29T03:14:22;2.53;;;1.40;;
37164;SDS011;23057;48.554;14.454;2023-07-29T03:16:53;2.72;;;1.50;;
37164;SDS011;23057;48.554;14.454;2023-07-29T03:19:24;3.33;;;1.48;;
37164;SDS011;23057;48.554;14.454;2023-07-29T03:21:55;1.85;;;1.30;;
37164;SDS011;23057;48.554;14.454;2023-07-29T03:24:26;1.80;;;1.27;;
37164;SDS011;23057;48.554;14.454;2023-07-29T03:26:57;2.67;;;1.35;;
37164;SDS011;23057;48.554;14.454;2023-07-29T03:29:28;1.60;;;1.10;;
37164;SDS011;23057;48.554;14.454;2023-07-29T03:31:58;2.45;;;1.45;;
37164;SDS011;23057;48.554;14.454;2023-07-29T03:34:29;1.95;;;1.25;;
37164;SDS011;23057;48.554;14.454;2023-07-29T03:37:00;2.10;;;1.27;;
37164;SDS011;23057;48.554;14.454;2023-07-29T03:39:31;1.73;;;1.17;;
37164;SDS011;23057;48.554;14.454;2023-07-29T03:42:02;2.15;;;1.23;;
37164;SDS011;23057;48.554;14.454;2023-07-29T03:44:33;1.38;;;1.02;;
37164;SDS011;23057;48.554;14.454;2023-07-29T03:47:06;2.25;;;1.30;;
37164;SDS011;23057;48.554;14.454;2023-07-29T03:49:36;3.53;;;1.63;;
37164;SDS011;23057;48.554;14.454;2023-07-29T03:52:07;2.60;;;1.40;;
37164;SDS011;23057;48.554;14.454;2023-07-29T03:54:38;2.92;;;1.42;;
37164;SDS011;23057;48.554;14.454;2023-07-29T03:57:09;1.90;;;1.20;;
37164;SDS011;23057;48.554;14.454;2023-07-29T03:59:40;2.65;;;1.45;;
37164;SDS011;23057;48.554;14.454;2023-07-29T04:02:10;2.92;;;1.70;;
37164;SDS011;23057;48.554;14.454;2023-07-29T04:04:41;2.38;;;1.38;;
37164;SDS011;23057;48.554;14.454;2023-07-29T04:07:14;2.90;;;1.58;;
37164;SDS011;23057;48.554;14.454;2023-07-29T04:09:45;2.47;;;1.40;;
37164;SDS011;23057;48.554;14.454;2023-07-29T04:12:16;3.28;;;1.70;;
37164;SDS011;23057;48.554;14.454;2023-07-29T04:14:49;3.25;;;1.77;;
37164;SDS011;23057;48.554;14.454;2023-07-29T04:17:20;2.22;;;1.25;;
37164;SDS011;23057;48.554;14.454;2023-07-29T04:19:51;2.40;;;1.25;;
37164;SDS011;23057;48.554;14.454;2023-07-29T04:22:22;2.28;;;1.33;;
37164;SDS011;23057;48.554;14.454;2023-07-29T04:24:52;2.13;;;1.10;;
37164;SDS011;23057;48.554;14.454;2023-07-29T04:27:23;3.80;;;1.20;;
37164;SDS011;23057;48.554;14.454;2023-07-29T04:29:54;2.63;;;1.00;;
37164;SDS011;23057;48.554;14.454;2023-07-29T04:32:25;3.53;;;1.58;;
37164;SDS011;23057;48.554;14.454;2023-07-29T04:34:56;3.63;;;1.65;;
37164;SDS011;23057;48.554;14.454;2023-07-29T04:37:27;2.15;;;1.25;;
37164;SDS011;23057;48.554;14.454;2023-07-29T04:39:57;3.83;;;1.83;;
37164;SDS011;23057;48.554;14.454;2023-07-29T04:42:28;2.38;;;1.65;;
37164;SDS011;23057;48.554;14.454;2023-07-29T04:44:59;2.88;;;1.55;;
37164;SDS011;23057;48.554;14.454;2023-07-29T04:47:30;2.22;;;1.48;;
37164;SDS011;23057;48.554;14.454;2023-07-29T04:50:00;1.98;;;1.17;;
37164;SDS011;23057;48.554;14.454;2023-07-29T04:52:31;3.53;;;1.60;;
37164;SDS011;23057;48.554;14.454;2023-07-29T04:55:02;1.98;;;1.30;;
37164;SDS011;23057;48.554;14.454;2023-07-29T04:57:34;2.78;;;1.80;;
37164;SDS011;23057;48.554;14.454;2023-07-29T05:00:05;2.47;;;1.40;;
37164;SDS011;23057;48.554;14.454;2023-07-29T05:02:36;2.22;;;1.67;;
37164;SDS011;23057;48.554;14.454;2023-07-29T05:05:07;3.65;;;1.25;;
37164;SDS011;23057;48.554;14.454;2023-07-29T05:07:38;2.17;;;1.35;;
37164;SDS011;23057;48.554;14.454;2023-07-29T05:10:09;3.22;;;1.60;;
37164;SDS011;23057;48.554;14.454;2023-07-29T05:12:41;1.95;;;1.40;;
37164;SDS011;23057;48.554;14.454;2023-07-29T05:15:12;2.35;;;1.33;;
37164;SDS011;23057;48.554;14.454;2023-07-29T05:17:43;2.10;;;1.40;;
37164;SDS011;23057;48.554;14.454;2023-07-29T05:20:14;2.58;;;1.50;;
37164;SDS011;23057;48.554;14.454;2023-07-29T05:22:44;4.13;;;1.70;;
37164;SDS011;23057;48.554;14.454;2023-07-29T05:25:15;1.83;;;1.17;;
37164;SDS011;23057;48.554;14.454;2023-07-29T05:27:46;1.60;;;1.20;;
37164;SDS011;23057;48.554;14.454;2023-07-29T05:30:17;3.42;;;1.40;;
37164;SDS011;23057;48.554;14.454;2023-07-29T05:32:48;2.80;;;1.60;;
37164;SDS011;23057;48.554;14.454;2023-07-29T05:35:19;1.33;;;1.10;;
37164;SDS011;23057;48.554;14.454;2023-07-29T05:37:49;1.98;;;1.20;;
37164;SDS011;23057;48.554;14.454;2023-07-29T05:40:20;2.35;;;1.30;;
37164;SDS011;23057;48.554;14.454;2023-07-29T05:42:51;1.70;;;1.13;;
37164;SDS011;23057;48.554;14.454;2023-07-29T05:45:22;1.80;;;1.08;;
37164;SDS011;23057;48.554;14.454;2023-07-29T05:47:53;1.30;;;0.90;;
37164;SDS011;23057;48.554;14.454;2023-07-29T05:50:24;3.38;;;0.82;;
37164;SDS011;23057;48.554;14.454;2023-07-29T05:52:54;4.10;;;1.08;;
37164;SDS011;23057;48.554;14.454;2023-07-29T05:55:25;1.33;;;0.90;;
37164;SDS011;23057;48.554;14.454;2023-07-29T05:57:56;1.48;;;1.00;;
37164;SDS011;23057;48.554;14.454;2023-07-29T06:00:27;3.30;;;1.10;;
37164;SDS011;23057;48.554;14.454;2023-07-29T06:02:58;2.25;;;0.93;;
37164;SDS011;23057;48.554;14.454;2023-07-29T06:05:29;1.42;;;0.80;;
37164;SDS011;23057;48.554;14.454;2023-07-29T06:08:00;1.80;;;1.08;;
37164;SDS011;23057;48.554;14.454;2023-07-29T06:10:30;2.53;;;0.85;;
37164;SDS011;23057;48.554;14.454;2023-07-29T06:13:01;3.58;;;1.00;;
37164;SDS011;23057;48.554;14.454;2023-07-29T06:15:32;2.40;;;1.10;;
37164;SDS011;23057;48.554;14.454;2023-07-29T06:18:03;1.77;;;1.13;;
37164;SDS011;23057;48.554;14.454;2023-07-29T06:20:33;1.85;;;0.85;;
37164;SDS011;23057;48.554;14.454;2023-07-29T06:23:04;1.23;;;0.80;;
37164;SDS011;23057;48.554;14.454;2023-07-29T06:25:35;1.80;;;1.00;;
37164;SDS011;23057;48.554;14.454;2023-07-29T06:28:06;1.40;;;0.80;;
37164;SDS011;23057;48.554;14.454;2023-07-29T06:30:37;2.83;;;1.02;;
37164;SDS011;23057;48.554;14.454;2023-07-29T06:33:07;1.88;;;0.88;;
37164;SDS011;23057;48.554;14.454;2023-07-29T06:35:39;1.67;;;0.77;;
37164;SDS011;23057;48.554;14.454;2023-07-29T06:38:11;1.30;;;0.70;;
37164;SDS011;23057;48.554;14.454;2023-07-29T06:40:42;2.78;;;0.80;;
37164;SDS011;23057;48.554;14.454;2023-07-29T06:43:13;1.27;;;0.77;;
37164;SDS011;23057;48.554;14.454;2023-07-29T06:45:44;1.05;;;0.60;;
37164;SDS011;23057;48.554;14.454;2023-07-29T06:48:14;1.00;;;0.50;;
37164;SDS011;23057;48.554;14.454;2023-07-29T06:50:45;1.95;;;0.77;;
37164;SDS011;23057;48.554;14.454;2023-07-29T06:53:16;1.58;;;0.90;;
37164;SDS011;23057;48.554;14.454;2023-07-29T06:55:47;0.88;;;0.47;;
37164;SDS011;23057;48.554;14.454;2023-07-29T06:58:18;2.53;;;0.65;;
37164;SDS011;23057;48.554;14.454;2023-07-29T07:00:49;1.33;;;0.70;;
37164;SDS011;23057;48.554;14.454;2023-07-29T07:03:20;1.75;;;0.80;;
37164;SDS011;23057;48.554;14.454;2023-07-29T07:05:51;0.98;;;0.63;;
37164;SDS011;23057;48.554;14.454;2023-07-29T07:08:21;0.50;;;0.40;;
37164;SDS011;23057;48.554;14.454;2023-07-29T07:10:52;1.65;;;0.32;;
37164;SDS011;23057;48.554;14.454;2023-07-29T07:13:23;0.95;;;0.68;;
37164;SDS011;23057;48.554;14.454;2023-07-29T07:15:54;1.08;;;0.68;;
37164;SDS011;23057;48.554;14.454;2023-07-29T07:18:26;1.00;;;0.50;;
37164;SDS011;23057;48.554;14.454;2023-07-29T07:20:57;0.47;;;0.38;;
37164;SDS011;23057;48.554;14.454;2023-07-29T07:23:28;0.63;;;0.40;;
37164;SDS011;23057;48.554;14.454;2023-07-29T07:25:59;1.10;;;0.50;;
37164;SDS011;23057;48.554;14.454;2023-07-29T07:28:30;1.02;;;0.50;;
37164;SDS011;23057;48.554;14.454;2023-07-29T07:31:00;0.98;;;0.50;;
37164;SDS011;23057;48.554;14.454;2023-07-29T07:33:31;0.75;;;0.40;;
37164;SDS011;23057;48.554;14.454;2023-07-29T07:36:02;1.00;;;0.60;;
37164;SDS011;23057;48.554;14.454;2023-07-29T07:38:33;0.82;;;0.55;;
37164;SDS011;23057;48.554;14.454;2023-07-29T07:41:04;0.40;;;0.30;;
37164;SDS011;23057;48.554;14.454;2023-07-29T07:43:35;0.73;;;0.50;;
37164;SDS011;23057;48.554;14.454;2023-07-29T07:46:06;0.98;;;0.50;;
37164;SDS011;23057;48.554;14.454;2023-07-29T07:48:37;0.68;;;0.38;;
37164;SDS011;23057;48.554;14.454;2023-07-29T07:51:12;1.05;;;0.63;;
37164;SDS011;23057;48.554;14.454;2023-07-29T07:53:43;0.82;;;0.40;;
37164;SDS011;23057;48.554;14.454;2023-07-29T07:56:14;0.73;;;0.60;;
37164;SDS011;23057;48.554;14.454;2023-07-29T07:58:45;1.00;;;0.52;;
37164;SDS011;23057;48.554;14.454;2023-07-29T08:01:16;1.15;;;0.68;;
37164;SDS011;23057;48.554;14.454;2023-07-29T08:03:46;0.73;;;0.40;;
37164;SDS011;23057;48.554;14.454;2023-07-29T08:06:17;1.08;;;0.57;;
37164;SDS011;23057;48.554;14.454;2023-07-29T08:08:48;1.40;;;0.60;;
37164;SDS011;23057;48.554;14.454;2023-07-29T08:11:19;0.90;;;0.52;;
37164;SDS011;23057;48.554;14.454;2023-07-29T08:13:50;1.35;;;0.60;;
37164;SDS011;23057;48.554;14.454;2023-07-29T08:16:20;1.33;;;0.75;;
37164;SDS011;23057;48.554;14.454;2023-07-29T08:18:51;1.75;;;0.52;;
37164;SDS011;23057;48.554;14.454;2023-07-29T08:21:22;0.73;;;0.50;;
37164;SDS011;23057;48.554;14.454;2023-07-29T08:23:53;0.90;;;0.50;;
37164;SDS011;23057;48.554;14.454;2023-07-29T08:26:24;3.00;;;0.63;;
37164;SDS011;23057;48.554;14.454;2023-07-29T08:28:54;1.02;;;0.68;;
37164;SDS011;23057;48.554;14.454;2023-07-29T08:31:25;0.90;;;0.60;;
37164;SDS011;23057;48.554;14.454;2023-07-29T08:33:56;2.15;;;0.80;;
37164;SDS011;23057;48.554;14.454;2023-07-29T08:36:27;2.53;;;0.68;;
37164;SDS011;23057;48.554;14.454;2023-07-29T08:38:57;1.08;;;0.60;;
37164;SDS011;23057;48.554;14.454;2023-07-29T08:41:33;2.47;;;0.70;;
37164;SDS011;23057;48.554;14.454;2023-07-29T08:44:22;2.90;;;0.63;;
37164;SDS011;23057;48.554;14.454;2023-07-29T08:46:59;1.10;;;0.80;;
37164;SDS011;23057;48.554;14.454;2023-07-29T08:49:31;2.33;;;0.70;;
37164;SDS011;23057;48.554;14.454;2023-07-29T08:52:03;2.17;;;0.95;;
37164;SDS011;23057;48.554;14.454;2023-07-29T08:54:37;1.05;;;0.70;;
37164;SDS011;23057;48.554;14.454;2023-07-29T08:57:09;1.33;;;0.70;;
37164;SDS011;23057;48.554;14.454;2023-07-29T08:59:40;1.08;;;0.70;;
37164;SDS011;23057;48.554;14.454;2023-07-29T09:02:12;3.10;;;1.00;;
37164;SDS011;23057;48.554;14.454;2023-07-29T09:04:43;1.20;;;0.80;;
37164;SDS011;23057;48.554;14.454;2023-07-29T09:07:14;1.10;;;0.65;;
37164;SDS011;23057;48.554;14.454;2023-07-29T09:09:45;3.33;;;0.82;;
37164;SDS011;23057;48.554;14.454;2023-07-29T09:12:16;1.05;;;0.73;;
37164;SDS011;23057;48.554;14.454;2023-07-29T09:14:47;1.92;;;0.90;;
37164;SDS011;23057;48.554;14.454;2023-07-29T09:17:23;1.23;;;0.80;;
37164;SDS011;23057;48.554;14.454;2023-07-29T09:19:53;2.08;;;1.00;;
37164;SDS011;23057;48.554;14.454;2023-07-29T09:22:24;1.77;;;0.63;;
37164;SDS011;23057;48.554;14.454;2023-07-29T09:24:58;1.90;;;0.90;;
37164;SDS011;23057;48.554;14.454;2023-07-29T09:27:28;1.77;;;0.80;;
37164;SDS011;23057;48.554;14.454;2023-07-29T09:30:01;1.33;;;0.73;;
37164;SDS011;23057;48.554;14.454;2023-07-29T09:32:33;1.88;;;1.00;;
37164;SDS011;23057;48.554;14.454;2023-07-29T09:35:05;1.42;;;0.90;;
37164;SDS011;23057;48.554;14.454;2023-07-29T09:37:43;3.38;;;1.08;;
37164;SDS011;23057;48.554;14.454;2023-07-29T09:40:14;1.50;;;0.80;;
37164;SDS011;23057;48.554;14.454;2023-07-29T09:42:49;1.52;;;0.90;;
37164;SDS011;23057;48.554;14.454;2023-07-29T09:45:23;4.00;;;1.00;;
37164;SDS011;23057;48.554;14.454;2023-07-29T09:47:57;2.92;;;0.90;;
37164;SDS011;23057;48.554;14.454;2023-07-29T09:50:31;2.95;;;0.93;;
37164;SDS011;23057;48.554;14.454;2023-07-29T09:53:02;1.73;;;0.95;;
37164;SDS011;23057;48.554;14.454;2023-07-29T09:55:33;2.20;;;1.00;;
37164;SDS011;23057;48.554;14.454;2023-07-29T09:58:05;1.80;;;0.95;;
37164;SDS011;23057;48.554;14.454;2023-07-29T10:00:38;1.30;;;0.82;;
37164;SDS011;23057;48.554;14.454;2023-07-29T10:03:10;2.47;;;1.17;;
37164;SDS011;23057;48.554;14.454;2023-07-29T10:05:43;2.65;;;1.23;;
37164;SDS011;23057;48.554;14.454;2023-07-29T10:08:15;4.30;;;1.50;;
37164;SDS011;23057;48.554;14.454;2023-07-29T10:10:49;1.63;;;1.20;;
37164;SDS011;23057;48.554;14.454;2023-07-29T10:13:22;3.65;;;1.60;;
37164;SDS011;23057;48.554;14.454;2023-07-29T10:15:56;2.58;;;1.27;;
37164;SDS011;23057;48.554;14.454;2023-07-29T10:18:27;2.25;;;1.15;;
37164;SDS011;23057;48.554;14.454;2023-07-29T10:21:01;3.75;;;1.20;;
37164;SDS011;23057;48.554;14.454;2023-07-29T10:23:38;2.28;;;1.38;;
37164;SDS011;23057;48.554;14.454;2023-07-29T10:26:20;2.00;;;1.10;;
37164;SDS011;23057;48.554;14.454;2023-07-29T10:28:52;1.95;;;1.10;;
37164;SDS011;23057;48.554;14.454;2023-07-29T10:31:34;2.25;;;1.20;;
37164;SDS011;23057;48.554;14.454;2023-07-29T10:34:10;2.95;;;1.00;;
37164;SDS011;23057;48.554;14.454;2023-07-29T10:36:44;2.80;;;1.27;;
37164;SDS011;23057;48.554;14.454;2023-07-29T10:39:17;2.70;;;1.20;;
37164;SDS011;23057;48.554;14.454;2023-07-29T10:42:00;2.47;;;1.13;;
37164;SDS011;23057;48.554;14.454;2023-07-29T10:47:25;2.20;;;1.55;;
37164;SDS011;23057;48.554;14.454;2023-07-29T10:50:02;5.43;;;1.30;;
37164;SDS011;23057;48.554;14.454;2023-07-29T10:52:51;3.00;;;1.40;;
37164;SDS011;23057;48.554;14.454;2023-07-29T10:58:13;2.03;;;1.05;;
37164;SDS011;23057;48.554;14.454;2023-07-29T11:00:48;1.77;;;1.08;;
37164;SDS011;23057;48.554;14.454;2023-07-29T11:03:19;2.30;;;1.15;;
37164;SDS011;23057;48.554;14.454;2023-07-29T11:05:53;2.72;;;1.25;;
37164;SDS011;23057;48.554;14.454;2023-07-29T11:08:27;2.03;;;1.00;;
37164;SDS011;23057;48.554;14.454;2023-07-29T11:11:07;1.90;;;1.15;;
37164;SDS011;23057;48.554;14.454;2023-07-29T11:13:43;3.05;;;1.20;;
37164;SDS011;23057;48.554;14.454;2023-07-29T11:16:15;2.88;;;1.35;;
37164;SDS011;23057;48.554;14.454;2023-07-29T11:18:47;2.50;;;1.38;;
37164;SDS011;23057;48.554;14.454;2023-07-29T11:21:19;2.15;;;1.20;;
37164;SDS011;23057;48.554;14.454;2023-07-29T11:23:50;2.42;;;1.30;;
37164;SDS011;23057;48.554;14.454;2023-07-29T11:26:23;2.00;;;1.25;;
37164;SDS011;23057;48.554;14.454;2023-07-29T11:28:54;2.55;;;1.20;;
37164;SDS011;23057;48.554;14.454;2023-07-29T11:31:38;1.95;;;1.10;;
37164;SDS011;23057;48.554;14.454;2023-07-29T11:34:11;3.97;;;1.30;;
37164;SDS011;23057;48.554;14.454;2023-07-29T11:36:45;1.80;;;1.00;;
37164;SDS011;23057;48.554;14.454;2023-07-29T11:39:16;2.13;;;1.30;;
37164;SDS011;23057;48.554;14.454;2023-07-29T11:41:47;1.98;;;1.15;;
37164;SDS011;23057;48.554;14.454;2023-07-29T11:44:18;2.30;;;1.10;;
37164;SDS011;23057;48.554;14.454;2023-07-29T11:46:48;2.78;;;1.10;;
37164;SDS011;23057;48.554;14.454;2023-07-29T11:49:19;2.20;;;1.52;;
37164;SDS011;23057;48.554;14.454;2023-07-29T11:51:50;2.47;;;1.20;;
37164;SDS011;23057;48.554;14.454;2023-07-29T11:54:22;2.88;;;1.52;;
37164;SDS011;23057;48.554;14.454;2023-07-29T11:56:55;2.47;;;1.20;;
37164;SDS011;23057;48.554;14.454;2023-07-29T11:59:27;2.55;;;1.35;;
37164;SDS011;23057;48.554;14.454;2023-07-29T12:02:00;3.33;;;1.20;;
37164;SDS011;23057;48.554;14.454;2023-07-29T12:04:36;3.00;;;1.43;;
37164;SDS011;23057;48.554;14.454;2023-07-29T12:07:11;2.72;;;1.20;;
37164;SDS011;23057;48.554;14.454;2023-07-29T12:09:45;2.33;;;1.35;;
37164;SDS011;23057;48.554;14.454;2023-07-29T12:12:17;2.55;;;1.30;;
37164;SDS011;23057;48.554;14.454;2023-07-29T12:14:48;2.35;;;1.33;;
37164;SDS011;23057;48.554;14.454;2023-07-29T12:17:19;2.10;;;1.30;;
37164;SDS011;23057;48.554;14.454;2023-07-29T12:19:53;2.92;;;1.48;;
37164;SDS011;23057;48.554;14.454;2023-07-29T12:22:25;3.20;;;1.58;;
37164;SDS011;23057;48.554;14.454;2023-07-29T12:24:56;2.65;;;1.48;;
37164;SDS011;23057;48.554;14.454;2023-07-29T12:27:27;3.22;;;1.52;;
37164;SDS011;23057;48.554;14.454;2023-07-29T12:30:01;2.80;;;1.52;;
37164;SDS011;23057;48.554;14.454;2023-07-29T12:32:33;2.58;;;1.38;;
37164;SDS011;23057;48.554;14.454;2023-07-29T12:35:16;2.38;;;1.50;;
37164;SDS011;23057;48.554;14.454;2023-07-29T12:37:47;3.47;;;1.48;;
37164;SDS011;23057;48.554;14.454;2023-07-29T12:40:29;2.60;;;1.35;;
37164;SDS011;23057;48.554;14.454;2023-07-29T12:42:59;2.78;;;1.70;;
37164;SDS011;23057;48.554;14.454;2023-07-29T12:45:35;1.95;;;1.15;;
37164;SDS011;23057;48.554;14.454;2023-07-29T12:48:09;3.38;;;1.70;;
37164;SDS011;23057;48.554;14.454;2023-07-29T12:50:41;2.83;;;1.67;;
37164;SDS011;23057;48.554;14.454;2023-07-29T12:53:12;2.42;;;1.50;;
37164;SDS011;23057;48.554;14.454;2023-07-29T12:55:43;2.97;;;1.25;;
37164;SDS011;23057;48.554;14.454;2023-07-29T12:58:13;3.78;;;1.58;;
37164;SDS011;23057;48.554;14.454;2023-07-29T13:00:44;2.08;;;1.20;;
37164;SDS011;23057;48.554;14.454;2023-07-29T13:03:15;2.22;;;1.23;;
37164;SDS011;23057;48.554;14.454;2023-07-29T13:05:46;1.73;;;1.10;;
37164;SDS011;23057;48.554;14.454;2023-07-29T13:08:16;4.45;;;1.73;;
37164;SDS011;23057;48.554;14.454;2023-07-29T13:10:47;3.65;;;1.52;;
37164;SDS011;23057;48.554;14.454;2023-07-29T13:13:18;1.90;;;1.30;;
37164;SDS011;23057;48.554;14.454;2023-07-29T13:15:50;2.10;;;1.17;;
37164;SDS011;23057;48.554;14.454;2023-07-29T13:18:22;2.15;;;1.48;;
37164;SDS011;23057;48.554;14.454;2023-07-29T13:20:53;2.47;;;1.42;;
37164;SDS011;23057;48.554;14.454;2023-07-29T13:23:25;2.92;;;1.60;;
37164;SDS011;23057;48.554;14.454;2023-07-29T13:25:58;3.47;;;2.15;;
37164;SDS011;23057;48.554;14.454;2023-07-29T13:28:28;3.00;;;1.60;;
37164;SDS011;23057;48.554;14.454;2023-07-29T13:31:00;1.98;;;1.42;;
37164;SDS011;23057;48.554;14.454;2023-07-29T13:33:31;2.75;;;1.67;;
37164;SDS011;23057;48.554;14.454;2023-07-29T13:36:04;1.88;;;1.33;;
37164;SDS011;23057;48.554;14.454;2023-07-29T13:38:35;2.22;;;1.50;;
37164;SDS011;23057;48.554;14.454;2023-07-29T13:41:06;2.28;;;1.35;;
37164;SDS011;23057;48.554;14.454;2023-07-29T13:43:37;2.20;;;1.48;;
37164;SDS011;23057;48.554;14.454;2023-07-29T13:46:08;3.13;;;2.00;;
37164;SDS011;23057;48.554;14.454;2023-07-29T13:48:38;3.10;;;1.70;;
37164;SDS011;23057;48.554;14.454;2023-07-29T13:51:09;2.45;;;1.58;;
37164;SDS011;23057;48.554;14.454;2023-07-29T13:53:40;4.38;;;1.98;;
37164;SDS011;23057;48.554;14.454;2023-07-29T13:56:11;3.88;;;2.28;;
37164;SDS011;23057;48.554;14.454;2023-07-29T13:58:41;2.92;;;1.48;;
37164;SDS011;23057;48.554;14.454;2023-07-29T14:01:12;2.35;;;1.58;;
37164;SDS011;23057;48.554;14.454;2023-07-29T14:03:43;2.63;;;1.40;;
37164;SDS011;23057;48.554;14.454;2023-07-29T14:06:14;6.07;;;1.70;;
37164;SDS011;23057;48.554;14.454;2023-07-29T14:08:44;2.67;;;1.50;;
37164;SDS011;23057;48.554;14.454;2023-07-29T14:11:15;2.50;;;1.48;;
37164;SDS011;23057;48.554;14.454;2023-07-29T14:13:46;3.50;;;1.45;;
37164;SDS011;23057;48.554;14.454;2023-07-29T14:16:17;2.15;;;1.50;;
37164;SDS011;23057;48.554;14.454;2023-07-29T14:18:47;3.83;;;1.67;;
37164;SDS011;23057;48.554;14.454;2023-07-29T14:21:18;3.38;;;1.80;;
37164;SDS011;23057;48.554;14.454;2023-07-29T14:23:49;2.88;;;1.75;;
37164;SDS011;23057;48.554;14.454;2023-07-29T14:26:20;2.90;;;1.70;;
37164;SDS011;23057;48.554;14.454;2023-07-29T14:28:51;2.95;;;1.55;;
37164;SDS011;23057;48.554;14.454;2023-07-29T14:31:22;2.70;;;1.55;;
37164;SDS011;23057;48.554;14.454;2023-07-29T14:33:53;3.97;;;1.80;;
37164;SDS011;23057;48.554;14.454;2023-07-29T14:36:23;3.53;;;1.30;;
37164;SDS011;23057;48.554;14.454;2023-07-29T14:38:54;2.40;;;1.45;;
37164;SDS011;23057;48.554;14.454;2023-07-29T14:41:25;2.83;;;1.73;;
37164;SDS011;23057;48.554;14.454;2023-07-29T14:43:56;2.28;;;1.30;;
37164;SDS011;23057;48.554;14.454;2023-07-29T14:46:27;2.60;;;1.38;;
37164;SDS011;23057;48.554;14.454;2023-07-29T14:48:58;2.35;;;1.60;;
37164;SDS011;23057;48.554;14.454;2023-07-29T14:51:28;2.88;;;1.50;;
37164;SDS011;23057;48.554;14.454;2023-07-29T14:53:59;3.08;;;1.73;;
37164;SDS011;23057;48.554;14.454;2023-07-29T14:56:30;3.08;;;1.55;;
37164;SDS011;23057;48.554;14.454;2023-07-29T14:59:01;2.92;;;1.80;;
37164;SDS011;23057;48.554;14.454;2023-07-29T15:01:32;1.65;;;1.02;;
37164;SDS011;23057;48.554;14.454;2023-07-29T15:04:03;2.88;;;1.00;;
37164;SDS011;23057;48.554;14.454;2023-07-29T15:06:34;1.75;;;1.27;;
37164;SDS011;23057;48.554;14.454;2023-07-29T15:09:05;1.80;;;1.10;;
37164;SDS011;23057;48.554;14.454;2023-07-29T15:11:37;3.38;;;1.33;;